Terminal Aerodrome Forecast
Issued by NWS

Home | Current Version | Previous Version | Text Only | Print | Product List | Glossary On
Versions: 1 2 3 4 5 6 7 8 9 10 11 12 13 14
000
FTUS44 KLIX 271700
TAFMCB
TAF
KMCB 271726Z 2718/2818 33005KT P6SM SKC
     FM281000 00000KT 5SM BR FEW250
     FM281300 VRB03KT P6SM SKC=

USA.gov is the U.S. government's official web portal to all federal, state and local government web resources and services.